Time;durP1;ratioP1;P1;durP2;ratioP2;P2;SDS_P1;SDS_P2;PMS_P1;PMS_P2;Temp;Humidity;BMP_temperature;BMP_pressure;BME280_temperature;BME280_humidity;BME280_pressure;Samples;Min_cycle;Max_cycle;Signal;HPM_P1;HPM_P2
2021/03/09 00:02:07;;;;;;;36.92;17.85;;;;;;;6.82;70.30;102066.13;5025777;28;20021;-87
2021/03/09 00:04:34;;;;;;;39.13;18.50;;;;;;;6.90;69.86;102076.78;5024844;28;20033;-87
2021/03/09 00:07:00;;;;;;;35.92;16.98;;;;;;;6.73;70.42;102068.59;5019207;28;20041;-87
2021/03/09 00:09:27;;;;;;;38.35;17.15;;;;;;;6.82;70.21;102074.03;5024534;28;20026;-85
2021/03/09 00:11:53;;;;;;;39.28;16.45;;;;;;;6.83;70.00;102070.53;5023364;28;20037;-87
2021/03/09 00:14:20;;;;;;;40.95;18.42;;;;;;;6.84;70.23;102060.88;5023562;28;20435;-85
2021/03/09 00:16:46;;;;;;;39.08;16.95;;;;;;;6.88;69.84;102052.16;5024933;28;20057;-85
2021/03/09 00:19:13;;;;;;;46.88;18.58;;;;;;;6.93;69.69;102055.78;5023078;28;20124;-86
2021/03/09 00:21:39;;;;;;;46.50;19.67;;;;;;;6.75;70.53;102052.00;5026132;28;20029;-84
2021/03/09 00:24:06;;;;;;;43.42;19.65;;;;;;;6.74;70.42;102052.84;5023289;28;20447;-85
2021/03/09 00:26:33;;;;;;;38.30;17.73;;;;;;;6.65;70.99;102055.31;5022565;28;20088;-85
2021/03/09 00:29:00;;;;;;;47.88;19.33;;;;;;;6.56;70.95;102055.19;5016888;28;20045;-85
2021/03/09 00:31:26;;;;;;;48.95;21.33;;;;;;;6.63;70.79;102057.06;5025166;28;20030;-85
2021/03/09 00:33:52;;;;;;;50.70;20.63;;;;;;;6.67;70.67;102044.81;5023172;28;20030;-85
2021/03/09 00:36:19;;;;;;;43.00;19.55;;;;;;;6.83;70.23;102054.75;5029111;28;20050;-85
2021/03/09 00:38:45;;;;;;;53.50;22.10;;;;;;;6.78;70.44;102057.28;5024138;28;20108;-85
2021/03/09 00:41:12;;;;;;;50.75;23.45;;;;;;;6.90;70.18;102055.69;5026276;28;20106;-85
2021/03/09 00:43:38;;;;;;;54.42;23.27;;;;;;;6.67;70.96;102047.44;5026896;28;20041;-85
2021/03/09 00:46:05;;;;;;;57.25;23.90;;;;;;;6.95;70.05;102048.75;5027158;28;20025;-84
2021/03/09 00:48:46;;;;;;;54.00;24.40;;;;;;;7.03;70.24;102043.59;5024452;28;20111;-84
2021/03/09 00:51:13;;;;;;;64.22;26.77;;;;;;;6.94;69.99;102047.88;5024005;28;20516;-84
2021/03/09 00:53:39;;;;;;;56.33;24.92;;;;;;;6.89;70.57;102048.66;5024899;28;20551;-84
2021/03/09 00:56:06;;;;;;;55.42;25.60;;;;;;;6.98;70.28;102035.63;5030016;28;20496;-85
2021/03/09 00:58:32;;;;;;;57.72;25.10;;;;;;;6.64;71.48;102038.66;5026075;28;20119;-86
2021/03/09 01:00:59;;;;;;;60.15;26.83;;;;;;;6.78;71.28;102030.94;5024547;28;20544;-86
2021/03/09 01:03:25;;;;;;;65.68;27.00;;;;;;;6.88;70.89;102031.06;5025103;28;20026;-85
2021/03/09 01:05:55;;;;;;;62.42;28.30;;;;;;;6.92;70.70;102039.06;5026258;28;20030;-84
2021/03/09 01:08:24;;;;;;;65.03;27.85;;;;;;;6.85;71.25;102031.03;5024899;28;20049;-84
2021/03/09 01:10:51;;;;;;;66.95;27.90;;;;;;;6.80;71.40;102023.06;5027485;28;20022;-85
2021/03/09 01:13:20;;;;;;;64.15;27.70;;;;;;;6.91;71.04;102015.31;5027748;28;20424;-84
2021/03/09 01:15:48;;;;;;;66.15;27.65;;;;;;;6.76;71.80;102018.63;5025917;28;20022;-86
2021/03/09 01:18:18;;;;;;;66.18;28.70;;;;;;;6.96;71.11;102009.25;5028036;28;20034;-86
2021/03/09 01:20:45;;;;;;;70.13;29.25;;;;;;;7.03;70.81;102010.22;5028699;28;20568;-83
2021/03/09 01:23:12;;;;;;;70.35;29.70;;;;;;;7.07;70.46;102011.16;5028456;28;20041;-86
2021/03/09 01:25:38;;;;;;;73.10;30.23;;;;;;;7.07;70.75;102009.41;5027166;28;20037;-85
2021/03/09 01:28:06;;;;;;;73.65;30.27;;;;;;;7.07;70.63;102001.50;5026971;28;20025;-85
2021/03/09 01:30:33;;;;;;;77.68;33.15;;;;;;;6.98;70.98;102001.38;5025307;28;20026;-85
2021/03/09 01:33:00;;;;;;;67.47;28.90;;;;;;;6.89;71.64;101993.34;5026317;28;20041;-84
2021/03/09 01:35:27;;;;;;;81.13;32.85;;;;;;;7.06;70.87;101989.16;5025916;28;20483;-85
2021/03/09 01:37:53;;;;;;;79.10;32.00;;;;;;;6.97;71.34;101981.16;5023795;28;20443;-85
2021/03/09 01:40:21;;;;;;;75.55;31.63;;;;;;;7.01;71.21;101982.97;5025246;28;20046;-85
2021/03/09 01:42:47;;;;;;;79.20;33.47;;;;;;;6.91;71.53;101986.34;5026778;28;20098;-86
2021/03/09 01:45:14;;;;;;;72.35;30.20;;;;;;;6.92;71.96;101980.22;5026187;28;20068;-85
2021/03/09 01:47:44;;;;;;;77.47;30.00;;;;;;;6.92;71.75;101989.00;5026878;28;20087;-85
2021/03/09 01:50:13;;;;;;;75.88;30.48;;;;;;;6.88;71.94;101987.19;5021273;28;20034;-85
2021/03/09 01:52:42;;;;;;;79.05;31.70;;;;;;;6.80;72.36;101981.81;5025067;28;20445;-85
2021/03/09 01:55:11;;;;;;;81.03;31.75;;;;;;;6.95;71.86;101969.69;5023383;28;20510;-85
2021/03/09 01:57:40;;;;;;;75.30;33.00;;;;;;;7.00;71.81;101978.56;5024266;28;20022;-86
2021/03/09 02:00:08;;;;;;;83.63;35.53;;;;;;;6.95;71.90;101964.44;5028650;28;20199;-85
2021/03/09 02:02:36;;;;;;;87.40;33.63;;;;;;;7.01;71.74;101959.25;5033992;28;20028;-85
2021/03/09 02:05:07;;;;;;;86.93;33.45;;;;;;;7.06;71.78;101957.53;5034826;28;20032;-85
2021/03/09 02:07:34;;;;;;;89.40;34.80;;;;;;;7.02;72.05;101960.16;5035496;28;20034;-85
2021/03/09 02:10:03;;;;;;;78.63;32.75;;;;;;;6.90;72.06;101961.75;5034351;28;20049;-85
2021/03/09 02:15:35;;;;;;;74.28;32.22;;;;;;;7.07;71.92;101954.06;5062480;28;20443;-84
2021/03/09 02:18:13;;;;;;;91.18;36.22;;;;;;;7.19;71.51;101950.69;5047135;28;20104;-85
2021/03/09 02:21:19;;;;;;;88.53;34.33;;;;;;;7.23;71.60;101948.97;5048675;28;20120;-86
2021/03/09 02:24:27;;;;;;;80.97;35.13;;;;;;;7.22;71.61;101936.66;5056212;28;20099;-84
2021/03/09 02:27:17;;;;;;;88.40;34.22;;;;;;;7.19;71.67;101931.34;5053626;28;20052;-84
2021/03/09 02:29:59;;;;;;;86.60;36.13;;;;;;;7.28;71.48;101928.81;5061926;28;20032;-84
2021/03/09 02:32:29;;;;;;;94.95;39.33;;;;;;;7.26;71.58;101923.53;5058359;28;20043;-84
2021/03/09 02:34:58;;;;;;;93.20;36.22;;;;;;;7.01;72.54;101927.63;5057777;28;20476;-84
2021/03/09 02:37:33;;;;;;;92.47;37.20;;;;;;;7.24;71.79;101914.72;5040537;28;20041;-85
2021/03/09 02:40:00;;;;;;;99.80;40.00;;;;;;;7.30;71.54;101913.88;5033019;28;20028;-84
2021/03/09 02:42:28;;;;;;;104.75;39.33;;;;;;;7.20;71.54;101912.03;5046584;28;20144;-85
2021/03/09 02:45:00;;;;;;;107.82;39.65;;;;;;;7.26;71.93;101907.72;5054996;28;20483;-85
2021/03/09 02:47:29;;;;;;;100.63;38.25;;;;;;;7.35;71.45;101908.66;5049864;28;20028;-85
2021/03/09 02:49:57;;;;;;;101.90;40.83;;;;;;;7.39;71.20;101903.47;5037636;28;20078;-84
2021/03/09 02:52:26;;;;;;;91.05;38.85;;;;;;;7.67;70.36;101898.44;5056954;28;20029;-85
2021/03/09 02:54:53;;;;;;;96.88;39.05;;;;;;;7.67;70.31;101902.84;5051212;28;20037;-85
2021/03/09 02:57:21;;;;;;;110.55;41.42;;;;;;;7.75;69.57;101896.75;5044768;28;20044;-85
2021/03/09 02:59:49;;;;;;;104.53;42.53;;;;;;;7.70;70.19;101887.94;5055848;28;20025;-85
2021/03/09 03:02:19;;;;;;;112.95;42.45;;;;;;;7.67;70.28;101885.25;5049653;28;20029;-85
2021/03/09 03:05:02;;;;;;;100.50;39.60;;;;;;;7.65;70.71;101884.38;5056563;28;20380;-83
2021/03/09 03:07:38;;;;;;;105.95;40.70;;;;;;;7.70;70.36;101885.28;5049017;28;20476;-83
2021/03/09 03:10:18;;;;;;;98.13;40.25;;;;;;;7.73;70.06;101887.06;5052409;28;20027;-83
2021/03/09 03:12:47;;;;;;;107.38;43.45;;;;;;;7.59;70.65;101872.00;5059090;28;20086;-83
2021/03/09 03:15:15;;;;;;;105.47;41.13;;;;;;;7.75;70.21;101878.28;5054779;28;20175;-83
2021/03/09 03:17:44;;;;;;;110.40;41.65;;;;;;;7.90;69.39;101874.00;5063030;28;20040;-83
2021/03/09 03:20:16;;;;;;;114.75;40.60;;;;;;;7.71;70.49;101872.97;5055046;28;20096;-83
2021/03/09 03:22:44;;;;;;;112.60;43.22;;;;;;;7.74;69.93;101865.97;5040093;28;20038;-83
2021/03/09 03:25:12;;;;;;;101.13;39.88;;;;;;;7.71;70.10;101863.31;5050335;28;20026;-84
2021/03/09 03:27:42;;;;;;;94.53;39.05;;;;;;;7.72;70.40;101857.16;5042023;28;20030;-85
2021/03/09 03:30:11;;;;;;;107.57;41.53;;;;;;;7.87;70.04;101852.88;5051941;28;20032;-84
2021/03/09 03:32:37;;;;;;;100.35;40.38;;;;;;;7.89;69.29;101859.06;5043201;28;20055;-84
2021/03/09 03:35:06;;;;;;;113.63;42.72;;;;;;;7.83;70.11;101859.00;5040700;28;20048;-84
2021/03/09 03:37:33;;;;;;;103.05;42.28;;;;;;;7.81;70.04;101852.81;5038951;28;20076;-83
2021/03/09 03:39:59;;;;;;;115.20;42.72;;;;;;;7.88;69.59;101850.25;5046013;28;20540;-84
2021/03/09 03:42:26;;;;;;;103.80;42.25;;;;;;;7.94;69.98;101846.78;5033549;28;20030;-83
2021/03/09 03:44:52;;;;;;;122.57;43.33;;;;;;;7.91;69.69;101849.38;5035718;28;20064;-83
2021/03/09 03:47:18;;;;;;;98.28;40.25;;;;;;;8.00;69.76;101843.28;5044935;28;20029;-83
2021/03/09 03:49:45;;;;;;;109.32;44.25;;;;;;;7.93;69.45;101850.28;5047896;28;20029;-83
2021/03/09 03:52:24;;;;;;;109.07;44.10;;;;;;;8.12;69.28;101840.72;5049643;28;20032;-83
2021/03/09 03:55:01;;;;;;;119.25;44.83;;;;;;;8.04;69.42;101840.69;5046143;28;20419;-84
2021/03/09 03:57:36;;;;;;;107.15;42.05;;;;;;;8.02;69.61;101831.84;5043729;28;20030;-83
2021/03/09 04:00:06;;;;;;;109.57;43.45;;;;;;;7.91;70.44;101841.47;5035385;28;20108;-83
2021/03/09 04:02:35;;;;;;;116.22;44.13;;;;;;;7.95;69.77;101824.78;5034726;28;20030;-84
2021/03/09 04:05:04;;;;;;;115.35;45.45;;;;;;;8.04;69.44;101830.13;5035325;28;20087;-83
2021/03/09 04:07:32;;;;;;;113.35;44.17;;;;;;;8.06;69.55;101828.38;5045160;28;20021;-83
2021/03/09 04:09:59;;;;;;;114.88;43.78;;;;;;;7.90;70.60;101827.41;5034907;28;20396;-84
2021/03/09 04:12:28;;;;;;;133.23;46.08;;;;;;;8.07;69.75;101829.25;5036173;28;20029;-83
2021/03/09 04:14:57;;;;;;;119.13;46.75;;;;;;;8.02;70.10;101818.66;5028564;28;20167;-84
2021/03/09 04:17:25;;;;;;;124.95;44.53;;;;;;;8.20;69.54;101824.91;5037907;28;20029;-84
2021/03/09 04:19:55;;;;;;;139.00;50.70;;;;;;;8.06;70.32;101824.84;5051837;28;20553;-85
2021/03/09 04:22:25;;;;;;;133.93;49.60;;;;;;;8.13;70.11;101818.72;5041031;28;20118;-84
2021/03/09 04:24:52;;;;;;;123.45;46.22;;;;;;;7.94;70.94;101823.91;5035972;28;20038;-84
2021/03/09 04:27:21;;;;;;;133.50;51.33;;;;;;;8.07;70.19;101826.63;5049649;28;20056;-84
2021/03/09 04:29:57;;;;;;;143.70;52.78;;;;;;;8.09;70.45;101812.56;5038768;28;20034;-84
2021/03/09 04:32:25;;;;;;;156.90;54.75;;;;;;;8.12;70.35;101816.09;5035507;28;20388;-85
2021/03/09 04:34:52;;;;;;;136.68;49.72;;;;;;;8.07;70.31;101814.31;5037099;28;20037;-84
2021/03/09 04:37:19;;;;;;;131.73;51.83;;;;;;;8.09;70.90;101820.47;5037621;28;20041;-84
2021/03/09 04:39:46;;;;;;;128.55;50.65;;;;;;;8.22;69.69;101821.44;5032758;28;20053;-84
2021/03/09 04:42:13;;;;;;;157.15;55.65;;;;;;;8.20;70.38;101820.53;5040425;28;20025;-84
2021/03/09 04:44:41;;;;;;;174.45;56.80;;;;;;;8.34;69.84;101817.97;5036416;28;20044;-85
2021/03/09 04:47:08;;;;;;;168.60;56.75;;;;;;;8.13;70.79;101815.22;5045678;28;20154;-85
2021/03/09 04:49:36;;;;;;;171.45;59.53;;;;;;;8.34;69.81;101817.97;5050679;28;20037;-84
2021/03/09 04:52:04;;;;;;;154.73;56.45;;;;;;;8.32;69.83;101814.44;5033876;28;21074;-84
2021/03/09 04:54:32;;;;;;;192.93;61.88;;;;;;;8.36;69.64;101817.97;5032486;28;20061;-84
2021/03/09 04:56:59;;;;;;;151.23;57.88;;;;;;;8.48;69.66;101822.47;5037406;28;20048;-85
2021/03/09 04:59:25;;;;;;;192.15;63.03;;;;;;;8.39;70.29;101818.88;5035861;28;20038;-85
2021/03/09 05:01:51;;;;;;;141.93;53.33;;;;;;;8.57;69.56;101820.75;5038370;28;20025;-85
2021/03/09 05:04:17;;;;;;;152.15;55.97;;;;;;;8.53;69.77;101815.44;5051129;28;20155;-84
2021/03/09 05:06:44;;;;;;;148.57;54.38;;;;;;;8.64;69.21;101823.44;5044002;28;20030;-84
2021/03/09 05:09:10;;;;;;;161.13;58.70;;;;;;;8.63;69.39;101817.25;5037334;28;20434;-84
2021/03/09 05:11:36;;;;;;;157.00;54.67;;;;;;;8.50;70.70;101820.69;5035561;28;20040;-84
2021/03/09 05:14:03;;;;;;;152.50;54.70;;;;;;;8.65;69.64;101822.53;5037328;28;20389;-85
2021/03/09 05:16:29;;;;;;;152.63;52.53;;;;;;;8.74;69.58;101823.44;5039834;28;20035;-85
2021/03/09 05:18:55;;;;;;;151.18;53.88;;;;;;;8.81;69.71;101823.47;5045885;28;20481;-84
2021/03/09 05:21:21;;;;;;;137.52;49.40;;;;;;;8.83;70.13;101824.34;5023906;28;20152;-84
2021/03/09 05:23:48;;;;;;;135.00;49.60;;;;;;;8.89;69.49;101822.59;5050255;28;20032;-84
2021/03/09 05:26:14;;;;;;;133.38;47.10;;;;;;;8.94;69.68;101827.91;5040108;28;20413;-84
2021/03/09 05:28:40;;;;;;;133.50;46.75;;;;;;;8.96;69.89;101827.91;5043770;28;20431;-84
2021/03/09 05:31:06;;;;;;;115.53;43.22;;;;;;;8.90;70.68;101834.06;5022281;28;20033;-84
2021/03/09 05:33:33;;;;;;;102.22;37.78;;;;;;;8.77;71.34;101833.13;5037340;28;20103;-84
2021/03/09 05:35:59;;;;;;;84.32;32.33;;;;;;;8.84;70.93;101834.06;5049853;28;20028;-84
2021/03/09 05:38:25;;;;;;;58.58;23.63;;;;;;;8.85;70.81;101841.13;5044268;28;20060;-84
2021/03/09 05:40:52;;;;;;;63.72;24.15;;;;;;;8.87;70.38;101845.53;5042180;28;20029;-85
2021/03/09 05:43:19;;;;;;;47.33;19.77;;;;;;;8.91;70.45;101841.13;5025028;28;20509;-85
2021/03/09 05:45:45;;;;;;;54.63;21.73;;;;;;;8.93;70.02;101834.06;5036441;28;20032;-85
2021/03/09 05:48:12;;;;;;;55.50;19.52;;;;;;;8.97;70.25;101842.91;5025168;28;20029;-85
2021/03/09 05:50:38;;;;;;;48.83;17.90;;;;;;;8.97;70.31;101837.59;5033577;28;20033;-84
2021/03/09 05:53:05;;;;;;;38.17;17.30;;;;;;;9.02;69.69;101834.13;5037710;28;20021;-85
2021/03/09 05:55:31;;;;;;;36.05;15.27;;;;;;;8.99;69.70;101839.38;5041153;28;20033;-84
2021/03/09 05:57:58;;;;;;;32.95;15.35;;;;;;;8.94;70.28;101842.91;5036611;28;20033;-84
2021/03/09 06:00:25;;;;;;;33.30;14.07;;;;;;;9.02;69.79;101839.41;5044981;28;20033;-84
2021/03/09 06:02:52;;;;;;;42.40;13.50;;;;;;;8.98;69.48;101840.25;5032219;28;20029;-85
2021/03/09 06:05:20;;;;;;;41.55;14.65;;;;;;;8.88;70.18;101842.00;5040903;28;20078;-85
2021/03/09 06:07:46;;;;;;;28.73;11.07;;;;;;;8.93;69.58;101849.94;5049190;28;20025;-85
2021/03/09 06:10:21;;;;;;;31.83;12.43;;;;;;;8.97;69.37;101845.53;5038390;28;20037;-85
2021/03/09 06:12:50;;;;;;;27.60;12.18;;;;;;;8.91;69.83;101843.78;5037298;28;20029;-85
2021/03/09 06:15:16;;;;;;;31.13;11.85;;;;;;;8.82;69.59;101841.09;5035752;28;20072;-85
2021/03/09 06:17:45;;;;;;;24.00;10.13;;;;;;;8.86;70.02;101854.31;5030447;28;20034;-85
2021/03/09 06:23:00;;;;;;;29.30;10.55;;;;;;;8.80;70.25;101849.00;5068170;28;20694;-84
2021/03/09 06:25:31;;;;;;;30.50;9.32;;;;;;;8.95;69.20;101853.47;5049762;28;21388;-84
2021/03/09 06:28:03;;;;;;;22.00;8.57;;;;;;;8.95;69.34;101855.22;5044094;28;20034;-84
2021/03/09 06:30:33;;;;;;;26.80;9.25;;;;;;;8.87;69.89;101861.38;5048757;28;20032;-84
2021/03/09 06:33:00;;;;;;;17.95;8.73;;;;;;;8.96;69.48;101854.34;5040608;28;20091;-84
2021/03/09 06:35:30;;;;;;;21.35;7.70;;;;;;;8.93;69.51;101857.00;5043529;28;20026;-84
2021/03/09 06:38:25;;;;;;;17.85;8.30;;;;;;;9.02;69.00;101855.25;5041561;28;20049;-83
2021/03/09 06:41:15;;;;;;;23.15;7.90;;;;;;;9.00;69.07;101859.66;5042752;28;20106;-83
2021/03/09 06:43:43;;;;;;;23.42;7.45;;;;;;;8.93;69.51;101860.50;5044418;28;20515;-83
2021/03/09 06:46:12;;;;;;;18.27;7.28;;;;;;;8.95;69.19;101858.75;5035988;28;20507;-84
2021/03/09 06:48:39;;;;;;;17.08;6.97;;;;;;;9.00;69.27;101862.28;5048790;28;20088;-84
2021/03/09 06:51:06;;;;;;;23.13;7.07;;;;;;;9.05;68.74;101868.47;5042797;28;20480;-84
2021/03/09 06:53:32;;;;;;;19.95;6.38;;;;;;;8.98;69.13;101869.31;5049697;28;20025;-84
2021/03/09 06:55:59;;;;;;;15.52;5.55;;;;;;;8.98;68.83;101874.59;5049865;28;20480;-84
2021/03/09 06:58:30;;;;;;;10.05;5.47;;;;;;;8.97;68.71;101872.88;5046907;28;20484;-84
2021/03/09 07:01:16;;;;;;;15.35;6.03;;;;;;;9.15;68.95;101868.50;5049635;28;20033;-83
2021/03/09 07:03:42;;;;;;;13.10;5.53;;;;;;;9.04;68.75;101869.34;5046992;28;20025;-83
2021/03/09 07:06:08;;;;;;;13.40;5.18;;;;;;;9.06;68.95;101872.00;5049597;28;20025;-83
2021/03/09 07:08:35;;;;;;;14.52;5.05;;;;;;;9.09;69.09;101877.28;5049420;28;20033;-83
2021/03/09 07:11:01;;;;;;;12.75;5.18;;;;;;;9.05;68.78;101884.34;5049623;28;20453;-83
2021/03/09 07:13:29;;;;;;;16.35;5.03;;;;;;;8.98;69.34;101887.81;5039530;28;20452;-83
2021/03/09 07:15:56;;;;;;;8.23;4.38;;;;;;;9.05;68.60;101886.97;5037009;28;20423;-83
2021/03/09 07:18:25;;;;;;;12.68;4.30;;;;;;;9.05;68.97;101891.41;5042777;28;20029;-84
2021/03/09 07:20:53;;;;;;;9.15;4.03;;;;;;;9.07;68.58;101889.63;5038351;28;20041;-85
2021/03/09 07:23:23;;;;;;;15.45;3.47;;;;;;;9.00;69.26;101896.66;5040732;28;20476;-85
2021/03/09 07:25:54;;;;;;;7.97;3.80;;;;;;;8.99;68.78;101894.00;5037689;28;20044;-85
2021/03/09 07:28:23;;;;;;;10.57;3.65;;;;;;;8.93;69.56;101894.88;5046989;28;20468;-84
2021/03/09 07:30:51;;;;;;;18.13;3.92;;;;;;;8.98;69.04;101885.19;5049444;28;20041;-82
2021/03/09 07:33:20;;;;;;;8.70;4.07;;;;;;;8.94;69.26;101894.00;5033172;28;20024;-83
2021/03/09 07:35:47;;;;;;;15.10;4.35;;;;;;;9.01;68.89;101893.13;5028258;28;20025;-82
2021/03/09 07:38:17;;;;;;;10.75;4.60;;;;;;;8.85;69.46;101904.53;5026611;28;20079;-83
2021/03/09 07:40:44;;;;;;;7.38;4.40;;;;;;;8.95;69.53;101895.75;5024368;28;20033;-82
2021/03/09 07:43:10;;;;;;;11.77;4.28;;;;;;;8.88;69.60;101894.88;5026239;28;20057;-82
2021/03/09 07:45:38;;;;;;;17.55;4.68;;;;;;;8.95;68.95;101894.84;5027344;28;20397;-83
2021/03/09 07:48:08;;;;;;;10.80;4.63;;;;;;;9.04;69.23;101893.13;5026400;28;20026;-83
2021/03/09 07:50:37;;;;;;;9.63;4.22;;;;;;;9.02;69.02;101891.38;5027832;28;20123;-83
2021/03/09 07:53:06;;;;;;;20.52;5.32;;;;;;;8.99;68.66;101889.59;5026989;28;20046;-84
2021/03/09 07:55:33;;;;;;;11.40;3.95;;;;;;;9.00;69.42;101894.00;5025852;28;20547;-84
2021/03/09 08:00:57;;;;;;;10.52;3.60;;;;;;;9.09;68.92;101905.50;5077701;27;20449;-83
2021/03/09 08:03:34;;;;;;;7.45;3.80;;;;;;;9.26;68.47;101901.16;5068983;28;20496;-83
2021/03/09 08:08:50;;;;;;;13.73;3.85;;;;;;;9.33;68.17;101896.75;5072531;27;20564;-85
2021/03/09 08:16:38;;;;;;;10.52;3.22;;;;;;;9.39;68.29;101900.31;5073754;27;20425;-84
2021/03/09 08:21:50;;;;;;;13.90;4.53;;;;;;;9.54;68.22;101911.78;5052818;28;20464;-83
2021/03/09 08:24:20;;;;;;;8.68;3.70;;;;;;;9.57;67.89;101911.78;5042542;28;20484;-84
2021/03/09 08:26:48;;;;;;;8.60;3.70;;;;;;;9.58;67.64;101916.19;5047620;28;20056;-83
2021/03/09 08:38:12;;;;;;;11.35;3.58;;;;;;;9.99;66.84;101910.06;5051478;28;20415;-84
2021/03/09 08:40:59;;;;;;;8.90;3.22;;;;;;;9.87;66.72;101910.06;5018924;28;20025;-85
2021/03/09 08:43:25;;;;;;;9.10;3.42;;;;;;;9.92;66.77;101910.03;5018829;28;20161;-89
2021/03/09 08:48:51;;;;;;;8.27;2.97;;;;;;;10.04;66.46;101910.94;5085338;27;20424;-87
2021/03/09 08:51:40;;;;;;;7.35;2.90;;;;;;;10.04;65.35;101916.22;5058901;28;20043;-85
2021/03/09 08:54:18;;;;;;;3.65;1.88;;;;;;;9.97;65.47;101908.25;5055718;28;20112;-87
2021/03/09 08:56:44;;;;;;;4.25;2.13;;;;;;;9.99;65.88;101910.06;5069928;28;20406;-87
2021/03/09 08:59:11;;;;;;;7.18;2.00;;;;;;;10.07;65.61;101909.13;5063290;28;20029;-83
2021/03/09 09:01:37;;;;;;;7.10;1.83;;;;;;;9.91;65.93;101911.81;5057536;28;20064;-85
2021/03/09 09:04:15;;;;;;;7.53;2.17;;;;;;;10.08;64.69;101902.97;5055475;28;20127;-85
2021/03/09 09:06:41;;;;;;;5.07;1.48;;;;;;;10.16;64.50;101911.78;5060053;28;20033;-86
2021/03/09 09:09:07;;;;;;;8.20;1.70;;;;;;;10.15;64.86;101912.66;5060893;28;20029;-86
2021/03/09 09:11:33;;;;;;;5.25;1.50;;;;;;;10.11;64.71;101913.56;5058726;28;20064;-88
2021/03/09 09:14:14;;;;;;;7.45;2.08;;;;;;;10.26;63.77;101918.84;5060927;28;20025;-81
2021/03/09 09:16:40;;;;;;;3.22;1.73;;;;;;;10.00;64.65;101922.38;5052929;28;20037;-82
2021/03/09 09:19:07;;;;;;;5.10;1.65;;;;;;;9.98;64.66;101929.47;5058202;28;20099;-86
2021/03/09 09:21:43;;;;;;;5.57;1.30;;;;;;;10.18;63.95;101915.31;5057764;28;20082;-86
2021/03/09 09:24:18;;;;;;;2.72;1.27;;;;;;;10.24;63.77;101914.44;5057038;28;20037;-87
2021/03/09 09:26:44;;;;;;;2.83;1.67;;;;;;;10.22;63.83;101914.44;5056104;28;20736;-89
2021/03/09 09:29:10;;;;;;;4.15;1.60;;;;;;;10.20;64.06;101913.53;5066767;28;20036;-84
2021/03/09 09:31:36;;;;;;;3.17;1.15;;;;;;;10.20;63.78;101905.59;5060718;28;20057;-84
2021/03/09 09:34:05;;;;;;;3.42;1.15;;;;;;;10.35;63.29;101902.94;5050661;28;20130;-85
2021/03/09 09:36:31;;;;;;;6.63;1.30;;;;;;;10.40;63.83;101904.72;5054604;28;20033;-88
2021/03/09 09:38:58;;;;;;;5.22;1.60;;;;;;;10.43;63.70;101910.00;5061263;28;20028;-87
2021/03/09 09:41:25;;;;;;;6.60;1.60;;;;;;;10.21;64.35;101915.31;5058551;28;20043;-86
2021/03/09 09:43:52;;;;;;;8.07;3.60;;;;;;;10.26;64.42;101913.53;5060360;28;20476;-86
2021/03/09 09:46:23;;;;;;;4.90;1.95;;;;;;;10.28;64.43;101917.06;5059160;28;20036;-87
2021/03/09 09:48:51;;;;;;;4.35;1.08;;;;;;;9.86;64.57;101916.22;5058390;28;20033;-86
2021/03/09 09:51:20;;;;;;;2.40;1.20;;;;;;;9.85;63.92;101910.03;5055286;28;20082;-87
2021/03/09 09:53:48;;;;;;;2.85;1.33;;;;;;;9.46;65.15;101919.69;5061273;28;20020;-86
2021/03/09 09:56:23;;;;;;;1.40;0.93;;;;;;;9.45;65.09;101915.28;5058791;28;20399;-86
2021/03/09 10:04:15;;;;;;;4.03;1.02;;;;;;;9.78;65.12;101902.09;5099065;27;20352;-85
2021/03/09 10:06:45;;;;;;;2.17;1.00;;;;;;;9.86;64.76;101908.28;5102088;28;20085;-85
2021/03/09 10:14:54;;;;;;;2.17;0.93;;;;;;;9.80;64.13;101901.22;5083910;27;20156;-83
2021/03/09 10:17:20;;;;;;;3.67;0.88;;;;;;;10.04;62.95;101910.03;5063100;28;20049;-89
2021/03/09 10:19:46;;;;;;;4.88;0.82;;;;;;;9.93;62.67;101910.06;5054497;28;20044;-87
2021/03/09 10:22:18;;;;;;;3.30;0.60;;;;;;;10.08;62.43;101905.63;5047534;28;20065;-86
2021/03/09 10:24:45;;;;;;;5.22;0.80;;;;;;;10.00;62.30;101906.50;5047019;28;20037;-87
2021/03/09 10:27:19;;;;;;;2.08;0.70;;;;;;;10.08;61.65;101902.97;5050340;28;20029;-86
2021/03/09 10:29:45;;;;;;;2.97;0.80;;;;;;;9.93;60.91;101894.16;5047803;28;20175;-85
2021/03/09 10:32:15;;;;;;;2.55;0.45;;;;;;;10.17;59.84;101901.19;5045912;28;20095;-86
2021/03/09 10:34:44;;;;;;;1.65;0.30;;;;;;;10.26;58.67;101883.53;5047724;28;20029;-85
2021/03/09 10:37:12;;;;;;;0.85;0.50;;;;;;;10.41;57.78;101894.13;5047907;28;20082;-85
2021/03/09 10:40:00;;;;;;;0.80;0.40;;;;;;;10.50;57.34;101893.22;5047082;28;20029;-86
2021/03/09 10:48:01;;;;;;;1.33;0.30;;;;;;;10.52;57.47;101899.41;5109036;27;20853;-86
2021/03/09 10:50:30;;;;;;;2.58;0.30;;;;;;;10.35;57.00;101902.94;5086371;28;20040;-85
2021/03/09 10:52:57;;;;;;;0.50;0.20;;;;;;;10.47;57.07;101895.88;5087772;28;20036;-81
2021/03/09 10:55:23;;;;;;;0.95;0.40;;;;;;;10.43;55.97;101894.09;5088340;28;20028;-85
2021/03/09 10:57:50;;;;;;;2.05;0.20;;;;;;;10.55;56.46;101899.38;5089600;28;20502;-87
2021/03/09 11:00:18;;;;;;;0.20;0.20;;;;;;;10.68;56.63;101898.44;5089058;28;20127;-87
2021/03/09 11:02:46;;;;;;;2.38;0.40;;;;;;;10.54;56.77;101908.19;5091383;28;20021;-86
2021/03/09 11:05:13;;;;;;;1.08;0.20;;;;;;;10.50;56.75;101899.41;5088767;28;20028;-88
2021/03/09 11:07:40;;;;;;;1.45;0.30;;;;;;;10.34;56.70;101903.81;5087363;28;20054;-89
2021/03/09 11:10:14;;;;;;;1.50;0.20;;;;;;;10.36;57.22;101902.06;5090551;28;20032;-91
2021/03/09 11:12:48;;;;;;;1.40;0.30;;;;;;;10.21;57.59;101920.63;5088425;28;20378;-89
2021/03/09 11:15:18;;;;;;;0.40;0.20;;;;;;;10.13;57.09;101911.78;5090390;28;20115;-89
2021/03/09 11:17:44;;;;;;;0.57;0.40;;;;;;;10.21;57.15;101912.66;5090896;28;20085;-86
2021/03/09 11:20:19;;;;;;;0.68;0.20;;;;;;;10.11;57.19;101913.56;5089695;28;20029;-88
2021/03/09 11:22:48;;;;;;;0.60;0.30;;;;;;;10.24;56.98;101915.28;5088857;28;20047;-87
2021/03/09 11:25:32;;;;;;;;;;;;;;;;;;;;;
2021/03/09 11:28:06;;;;;;;1.63;0.40;;;;;;;10.03;57.39;101927.69;5085494;28;20064;-94
2021/03/09 11:30:32;;;;;;;1.35;0.57;;;;;;;10.16;57.34;101927.69;5090458;28;20483;-84
2021/03/09 11:32:59;;;;;;;2.50;0.50;;;;;;;10.04;58.19;101932.09;5090022;28;20520;-89
2021/03/09 11:35:27;;;;;;;1.70;0.68;;;;;;;10.09;58.60;101928.56;5090542;28;20036;-89
2021/03/09 11:37:54;;;;;;;7.82;0.70;;;;;;;9.98;59.51;101928.56;5089803;28;20039;-90
2021/03/09 11:40:20;;;;;;;3.10;0.70;;;;;;;9.87;60.70;101926.81;5086377;28;20024;-90
2021/03/09 11:42:46;;;;;;;3.53;0.50;;;;;;;9.85;61.55;101939.13;5088654;28;20483;-88
2021/03/09 11:45:16;;;;;;;3.50;0.65;;;;;;;9.91;61.73;101938.28;5090368;28;20032;-88
2021/03/09 11:47:48;;;;;;;1.67;0.82;;;;;;;9.94;62.27;101938.25;5087595;28;20138;-89
2021/03/09 11:50:15;;;;;;;8.00;0.70;;;;;;;9.95;62.68;101934.75;5087682;28;20024;-88
2021/03/09 11:52:44;;;;;;;2.58;0.60;;;;;;;10.01;62.26;101934.75;5083290;28;20032;-91
2021/03/09 11:55:16;;;;;;;0.57;0.30;;;;;;;9.87;62.22;101941.81;5087537;28;20115;-91
2021/03/09 11:57:42;;;;;;;2.45;0.50;;;;;;;10.00;62.08;101935.63;5082265;28;20037;-89
2021/03/09 12:00:21;;;;;;;2.25;0.60;;;;;;;10.07;61.84;101938.25;5071401;28;20034;-90
2021/03/09 12:02:48;;;;;;;3.95;0.73;;;;;;;10.07;61.68;101938.25;5074200;28;20043;-90
2021/03/09 12:05:15;;;;;;;2.97;0.68;;;;;;;10.15;61.24;101933.84;5074721;28;20037;-88
2021/03/09 12:07:41;;;;;;;4.10;0.65;;;;;;;10.26;61.20;101929.44;5074941;28;20066;-86
2021/03/09 12:10:09;;;;;;;2.83;0.65;;;;;;;10.44;60.56;101919.72;5074886;28;20016;-84
2021/03/09 12:12:39;;;;;;;4.00;0.55;;;;;;;10.35;60.64;101932.09;5078466;28;20115;-85
2021/03/09 12:15:06;;;;;;;2.45;0.93;;;;;;;10.46;60.20;101915.31;5076846;28;20028;-85
2021/03/09 12:17:32;;;;;;;2.72;0.50;;;;;;;10.49;59.81;101923.22;5075662;28;20043;-88
2021/03/09 12:19:58;;;;;;;1.65;0.60;;;;;;;10.60;59.65;101918.78;5075295;28;20024;-89